createdAt,value
2022-08-17T00:00:06.798Z,19.30
2022-08-17T00:03:10.481Z,19.30
2022-08-17T00:05:52.069Z,19.30
2022-08-17T00:08:25.691Z,19.30
2022-08-17T00:10:54.231Z,19.30
2022-08-17T00:13:27.459Z,19.30
2022-08-17T00:16:04.320Z,19.30
2022-08-17T00:18:57.637Z,19.30
2022-08-17T00:21:25.143Z,19.20
2022-08-17T00:23:53.314Z,19.20
2022-08-17T00:26:38.763Z,19.20
2022-08-17T00:29:09.748Z,19.20
2022-08-17T00:31:46.481Z,19.20
2022-08-17T00:34:13.535Z,19.10
2022-08-17T00:36:40.598Z,19.10
2022-08-17T00:39:07.709Z,19.10
2022-08-17T00:41:35.788Z,19.10
2022-08-17T00:44:05.120Z,19.10
2022-08-17T00:46:39.263Z,19.20
2022-08-17T00:49:08.696Z,19.20
2022-08-17T00:51:45.123Z,19.20
2022-08-17T00:54:41.020Z,19.30
2022-08-17T00:57:15.120Z,19.40
2022-08-17T01:00:01.527Z,19.40
2022-08-17T01:02:34.430Z,19.40
2022-08-17T01:05:11.994Z,19.50
2022-08-17T01:07:40.050Z,19.50
2022-08-17T01:11:00.789Z,19.60
2022-08-17T01:12:56.790Z,19.60
2022-08-17T01:15:23.810Z,19.70
2022-08-17T01:17:50.897Z,19.70
2022-08-17T01:20:18.009Z,19.80
2022-08-17T01:22:45.218Z,19.80
2022-08-17T01:25:12.732Z,19.80
2022-08-17T01:27:40.832Z,19.90
2022-08-17T01:30:58.955Z,19.90
2022-08-17T01:32:59.912Z,20.00
2022-08-17T01:35:29.571Z,20.00
2022-08-17T01:37:56.584Z,20.00
2022-08-17T01:40:33.393Z,20.10
2022-08-17T01:43:10.446Z,20.10
2022-08-17T01:45:45.893Z,20.10
2022-08-17T01:48:14.543Z,20.10
2022-08-17T01:50:52.560Z,20.10
2022-08-17T01:53:26.013Z,20.20
2022-08-17T01:55:58.972Z,20.10
2022-08-17T01:58:25.943Z,20.20
2022-08-17T02:01:00.324Z,20.30
2022-08-17T02:03:29.424Z,20.30
2022-08-17T02:05:56.845Z,20.20
2022-08-17T02:08:37.305Z,20.20
2022-08-17T02:11:13.787Z,20.20
2022-08-17T02:13:40.857Z,20.20
2022-08-17T02:16:08.196Z,20.20
2022-08-17T02:18:35.293Z,20.30
2022-08-17T02:21:02.712Z,20.30
2022-08-17T02:23:34.986Z,20.20
2022-08-17T02:26:02.341Z,20.20
2022-08-17T02:28:30.064Z,20.20
2022-08-17T02:31:01.353Z,20.20
2022-08-17T02:33:42.690Z,20.20
2022-08-17T02:36:12.967Z,20.20
2022-08-17T02:38:41.098Z,20.20
2022-08-17T02:41:08.376Z,20.20
2022-08-17T02:43:35.531Z,20.20
2022-08-17T02:46:02.518Z,20.20
2022-08-17T02:48:31.621Z,20.20
2022-08-17T02:50:59.953Z,20.20
2022-08-17T02:53:27.736Z,20.20
2022-08-17T02:56:02.927Z,20.20
2022-08-17T02:58:34.675Z,20.20
2022-08-17T03:01:04.292Z,20.20
2022-08-17T03:03:31.773Z,20.20
2022-08-17T03:05:58.813Z,20.20
2022-08-17T03:08:25.789Z,20.20
2022-08-17T03:10:53.290Z,20.20
2022-08-17T03:13:20.682Z,20.20
2022-08-17T03:15:48.629Z,20.20
2022-08-17T03:18:24.326Z,20.20
2022-08-17T03:20:57.596Z,20.20
2022-08-17T03:23:25.754Z,20.20
2022-08-17T03:25:54.392Z,20.20
2022-08-17T03:28:24.148Z,20.20
2022-08-17T03:30:56.157Z,20.20
2022-08-17T03:33:27.420Z,20.20
2022-08-17T03:35:56.191Z,20.20
2022-08-17T03:38:26.742Z,20.20
2022-08-17T03:40:59.681Z,20.20
2022-08-17T03:43:31.685Z,20.20
2022-08-17T03:46:28.777Z,20.20
2022-08-17T03:49:25.138Z,20.20
2022-08-17T03:52:11.721Z,20.20
2022-08-17T03:54:57.401Z,20.20
2022-08-17T03:57:24.792Z,20.30
2022-08-17T03:59:52.859Z,20.30
2022-08-17T04:02:28.242Z,20.30
2022-08-17T04:04:55.341Z,20.30
2022-08-17T04:07:25.129Z,20.30
2022-08-17T04:09:52.217Z,20.40
2022-08-17T04:12:22.342Z,20.30
2022-08-17T04:14:52.641Z,20.30
2022-08-17T04:17:27.249Z,20.30
2022-08-17T04:19:55.266Z,20.30
2022-08-17T04:22:31.346Z,20.30
2022-08-17T04:25:14.962Z,20.30
2022-08-17T04:27:42.046Z,20.30
2022-08-17T04:30:09.779Z,20.30
2022-08-17T04:33:03.436Z,20.30
2022-08-17T04:35:36.033Z,20.30
2022-08-17T04:38:03.139Z,20.30
2022-08-17T04:40:48.806Z,20.30
2022-08-17T04:43:19.098Z,20.20
2022-08-17T04:45:54.930Z,20.20
2022-08-17T04:48:29.980Z,20.20
2022-08-17T04:51:10.185Z,20.20
2022-08-17T04:53:39.567Z,20.20
2022-08-17T04:56:07.013Z,20.20
2022-08-17T04:58:34.182Z,20.20
2022-08-17T05:01:01.651Z,20.30
2022-08-17T05:03:28.893Z,20.20
2022-08-17T05:05:55.988Z,20.30
2022-08-17T05:08:23.197Z,20.30
2022-08-17T05:10:50.500Z,20.30
2022-08-17T05:13:21.024Z,20.40
2022-08-17T05:15:52.168Z,20.50
2022-08-17T05:18:19.257Z,20.50
2022-08-17T05:20:46.965Z,20.50
2022-08-17T05:23:17.097Z,20.60
2022-08-17T05:25:48.586Z,20.60
2022-08-17T05:28:19.601Z,20.60
2022-08-17T05:30:51.985Z,20.70
2022-08-17T05:33:22.505Z,20.70
2022-08-17T05:35:52.265Z,20.70
2022-08-17T05:38:21.777Z,20.70
2022-08-17T05:40:49.197Z,20.70
2022-08-17T05:43:28.173Z,20.80
2022-08-17T05:46:20.513Z,20.80
2022-08-17T05:48:57.793Z,20.80
2022-08-17T05:52:02.452Z,20.80
2022-08-17T05:54:44.171Z,20.90
2022-08-17T05:57:54.083Z,20.90
2022-08-17T06:01:09.926Z,20.90
2022-08-17T06:03:55.421Z,21.00
2022-08-17T06:06:34.047Z,21.00
2022-08-17T06:09:06.752Z,21.10
2022-08-17T06:11:45.650Z,21.20
2022-08-17T06:14:35.496Z,21.30
2022-08-17T06:17:08.292Z,21.40
2022-08-17T06:19:51.237Z,21.40
2022-08-17T06:22:22.067Z,21.50
2022-08-17T06:25:03.633Z,21.50
2022-08-17T06:28:14.685Z,21.60
2022-08-17T06:31:00.081Z,21.60
2022-08-17T06:33:35.147Z,21.70
2022-08-17T06:36:09.575Z,21.80
2022-08-17T06:38:59.249Z,21.90
2022-08-17T06:41:38.135Z,21.90
2022-08-17T06:44:43.651Z,22.00
2022-08-17T06:47:28.016Z,22.10
2022-08-17T06:50:20.427Z,22.20
2022-08-17T06:53:03.545Z,22.30
2022-08-17T06:55:44.135Z,22.30
2022-08-17T06:58:22.853Z,22.40
2022-08-17T07:00:58.165Z,22.40
2022-08-17T07:03:38.709Z,22.40
2022-08-17T07:06:15.182Z,22.50
2022-08-17T07:09:06.334Z,22.50
2022-08-17T07:12:05.311Z,22.60
2022-08-17T07:14:40.971Z,22.80
2022-08-17T07:17:15.421Z,22.80
2022-08-17T07:19:46.518Z,23.00
2022-08-17T07:22:14.013Z,23.00
2022-08-17T07:24:50.905Z,23.00
2022-08-17T07:27:21.275Z,23.10
2022-08-17T07:30:12.384Z,23.20
2022-08-17T07:32:54.565Z,23.30
2022-08-17T07:35:31.257Z,23.40
2022-08-17T07:38:27.726Z,23.50
2022-08-17T07:41:04.967Z,23.60
2022-08-17T07:43:34.300Z,23.70
2022-08-17T07:46:38.000Z,23.80
2022-08-17T07:49:07.724Z,23.90
2022-08-17T07:51:39.487Z,24.00
2022-08-17T07:54:15.607Z,24.00
2022-08-17T07:56:59.913Z,24.20
2022-08-17T07:59:34.288Z,24.40
2022-08-17T08:02:33.728Z,24.60
2022-08-17T08:05:06.690Z,24.90
2022-08-17T08:07:50.651Z,25.10
2022-08-17T08:10:28.767Z,25.40
2022-08-17T08:13:23.418Z,25.60
2022-08-17T08:15:54.716Z,25.70
2022-08-17T08:18:53.706Z,25.80
2022-08-17T08:21:56.446Z,25.80
2022-08-17T08:24:42.989Z,25.90
2022-08-17T08:27:18.988Z,26.00
2022-08-17T08:30:16.574Z,26.10
2022-08-17T08:33:29.419Z,26.30
2022-08-17T08:36:56.962Z,26.50
2022-08-17T08:39:43.734Z,26.70
2022-08-17T08:42:37.191Z,26.90
2022-08-17T08:45:43.932Z,26.90
2022-08-17T08:48:55.804Z,26.90
2022-08-17T08:51:55.515Z,26.90
2022-08-17T08:54:34.606Z,26.90
2022-08-17T08:57:25.566Z,26.90
2022-08-17T09:00:17.148Z,26.80
2022-08-17T09:02:44.063Z,26.80
2022-08-17T09:05:15.577Z,27.00
2022-08-17T09:07:58.681Z,27.10
2022-08-17T09:11:06.624Z,27.20
2022-08-17T09:13:45.468Z,27.30
2022-08-17T09:16:36.766Z,27.50
2022-08-17T09:19:15.774Z,27.60
2022-08-17T09:22:12.059Z,27.70
2022-08-17T09:24:46.482Z,27.80
2022-08-17T09:27:38.213Z,27.80
2022-08-17T09:30:09.224Z,27.90
2022-08-17T09:32:41.069Z,27.90
2022-08-17T09:35:25.113Z,27.80
2022-08-17T09:38:31.764Z,27.80
2022-08-17T09:41:08.360Z,27.70
2022-08-17T09:43:53.677Z,27.50
2022-08-17T09:46:50.735Z,27.40
2022-08-17T09:49:28.468Z,27.30
2022-08-17T09:52:05.535Z,27.30
2022-08-17T09:54:39.151Z,27.20
2022-08-17T09:57:30.416Z,27.30
2022-08-17T10:00:24.970Z,27.30
2022-08-17T10:02:57.896Z,27.20
2022-08-17T10:05:28.006Z,27.10
2022-08-17T10:08:12.472Z,27.10
2022-08-17T10:10:56.656Z,27.00
2022-08-17T10:13:27.104Z,27.00
2022-08-17T10:16:08.216Z,27.00
2022-08-17T10:19:02.740Z,27.00
2022-08-17T10:21:51.325Z,26.90
2022-08-17T10:25:21.360Z,26.90
2022-08-17T10:27:54.091Z,26.80
2022-08-17T10:30:27.286Z,26.70
2022-08-17T10:33:01.800Z,26.60
2022-08-17T10:35:50.260Z,26.60
2022-08-17T10:38:33.216Z,26.50
2022-08-17T10:41:21.077Z,26.40
2022-08-17T10:44:38.496Z,26.30
2022-08-17T10:47:14.968Z,26.20
2022-08-17T10:49:49.568Z,26.10
2022-08-17T10:52:19.559Z,26.10
2022-08-17T10:54:50.775Z,26.10
2022-08-17T10:57:33.757Z,26.00
2022-08-17T11:00:15.824Z,26.00
2022-08-17T11:02:49.982Z,26.00
2022-08-17T11:05:45.115Z,26.00
2022-08-17T11:08:14.821Z,25.90
2022-08-17T11:10:52.273Z,25.90
2022-08-17T11:13:37.922Z,25.80
2022-08-17T11:16:13.457Z,25.70
2022-08-17T11:18:55.193Z,25.60
2022-08-17T11:21:22.115Z,25.50
2022-08-17T11:24:07.327Z,25.40
2022-08-17T11:26:37.276Z,25.20
2022-08-17T11:29:16.661Z,25.10
2022-08-17T11:31:58.434Z,25.10
2022-08-17T11:34:28.380Z,25.10
2022-08-17T11:37:01.842Z,25.00
2022-08-17T11:39:35.274Z,25.00
2022-08-17T11:42:25.513Z,25.00
2022-08-17T11:45:31.681Z,25.00
2022-08-17T11:48:36.695Z,25.10
2022-08-17T11:51:29.960Z,25.30
2022-08-17T11:54:31.085Z,25.50
2022-08-17T11:56:51.564Z,25.60
2022-08-17T11:59:33.897Z,25.70
2022-08-17T12:02:31.656Z,25.80
2022-08-17T12:05:14.474Z,25.90
2022-08-17T12:08:01.083Z,26.00
2022-08-17T12:10:34.334Z,26.00
2022-08-17T12:13:10.240Z,26.10
2022-08-17T12:15:42.348Z,26.10
2022-08-17T12:18:23.136Z,26.10
2022-08-17T12:21:06.399Z,26.10
2022-08-17T12:23:47.425Z,26.20
2022-08-17T12:26:20.834Z,26.30
2022-08-17T12:28:59.751Z,26.30
2022-08-17T12:31:30.834Z,26.50
2022-08-17T12:34:00.948Z,26.50
2022-08-17T12:36:29.086Z,26.60
2022-08-17T12:39:14.287Z,26.60
2022-08-17T12:41:57.350Z,26.70
2022-08-17T12:44:29.357Z,26.70
2022-08-17T12:47:01.717Z,26.80
2022-08-17T12:49:35.539Z,26.80
2022-08-17T12:52:11.144Z,27.00
2022-08-17T12:54:54.975Z,27.30
2022-08-17T12:57:32.754Z,27.60
2022-08-17T13:00:23.596Z,27.90
2022-08-17T13:02:53.693Z,28.00
2022-08-17T13:05:31.853Z,27.90
2022-08-17T13:08:00.249Z,27.80
2022-08-17T13:10:33.546Z,27.90
2022-08-17T13:13:05.287Z,27.90
2022-08-17T13:15:44.726Z,27.90
2022-08-17T13:18:52.484Z,28.00
2022-08-17T13:21:19.584Z,28.10
2022-08-17T13:24:01.085Z,28.20
2022-08-17T13:26:36.909Z,28.50
2022-08-17T13:29:35.673Z,28.80
2022-08-17T13:32:12.888Z,29.00
2022-08-17T13:35:12.516Z,29.20
2022-08-17T13:37:58.960Z,29.40
2022-08-17T13:40:30.625Z,29.80
2022-08-17T13:42:58.185Z,30.10
2022-08-17T13:45:34.919Z,30.20
2022-08-17T13:48:08.412Z,30.20
2022-08-17T13:50:37.891Z,30.00
2022-08-17T13:53:23.257Z,30.30
2022-08-17T13:55:57.689Z,30.50
2022-08-17T13:58:35.153Z,30.70
2022-08-17T14:01:32.912Z,30.60
2022-08-17T14:04:03.936Z,30.60
2022-08-17T14:06:53.858Z,30.70
2022-08-17T14:09:36.847Z,30.80
2022-08-17T14:12:10.651Z,31.10
2022-08-17T14:14:39.036Z,31.20
2022-08-17T14:17:06.165Z,31.50
2022-08-17T14:19:36.145Z,31.90
2022-08-17T14:22:05.312Z,32.10
2022-08-17T14:24:44.502Z,32.30
2022-08-17T14:27:12.913Z,32.30
2022-08-17T14:29:41.469Z,32.50
2022-08-17T14:32:25.424Z,32.70
2022-08-17T14:34:53.398Z,32.80
2022-08-17T14:37:22.521Z,32.90
2022-08-17T14:39:50.188Z,32.80
2022-08-17T14:42:18.490Z,32.70
2022-08-17T14:44:45.778Z,32.50
2022-08-17T14:47:14.959Z,32.40
2022-08-17T14:49:42.321Z,32.40
2022-08-17T14:52:12.759Z,32.40
2022-08-17T14:54:45.210Z,32.50
2022-08-17T14:57:25.859Z,32.30
2022-08-17T15:00:00.257Z,32.20
2022-08-17T15:02:29.866Z,32.30
2022-08-17T15:05:02.779Z,32.30
2022-08-17T15:07:30.995Z,32.30
2022-08-17T15:10:02.260Z,32.40
2022-08-17T15:12:33.803Z,32.50
2022-08-17T15:15:04.747Z,32.30
2022-08-17T15:17:43.705Z,31.90
2022-08-17T15:20:20.703Z,31.60
2022-08-17T15:22:49.708Z,31.20
2022-08-17T15:25:19.192Z,31.00
2022-08-17T15:27:47.428Z,31.00
2022-08-17T15:30:15.582Z,31.00
2022-08-17T15:32:48.212Z,31.00
2022-08-17T15:35:27.453Z,30.90
2022-08-17T15:38:11.798Z,30.80
2022-08-17T15:40:42.774Z,30.80
2022-08-17T15:43:22.015Z,30.80
2022-08-17T15:46:12.141Z,30.70
2022-08-17T15:48:46.090Z,30.70
2022-08-17T15:51:17.791Z,30.70
2022-08-17T15:53:48.069Z,30.60
2022-08-17T15:56:15.466Z,30.50
2022-08-17T15:58:44.218Z,30.40
2022-08-17T16:01:17.067Z,30.10
2022-08-17T16:04:04.069Z,30.10
2022-08-17T16:06:33.531Z,29.90
2022-08-17T16:09:00.667Z,29.80
2022-08-17T16:11:27.715Z,29.60
2022-08-17T16:13:56.094Z,29.40
2022-08-17T16:16:23.746Z,29.30
2022-08-17T16:18:56.997Z,29.10
2022-08-17T16:21:27.673Z,28.90
2022-08-17T16:23:58.946Z,28.70
2022-08-17T16:26:27.565Z,28.60
2022-08-17T16:28:55.693Z,28.70
2022-08-17T16:31:23.609Z,28.80
2022-08-17T16:34:15.563Z,28.80
2022-08-17T16:36:38.446Z,28.80
2022-08-17T16:39:05.700Z,28.80
2022-08-17T16:41:48.551Z,28.40
2022-08-17T16:44:17.656Z,28.40
2022-08-17T16:46:46.288Z,28.20
2022-08-17T16:49:35.146Z,28.10
2022-08-17T16:52:03.371Z,28.00
2022-08-17T16:54:30.497Z,27.80
2022-08-17T16:56:57.647Z,27.60
2022-08-17T17:00:02.216Z,27.40
2022-08-17T17:02:49.496Z,27.40
2022-08-17T17:05:22.559Z,27.30
2022-08-17T17:08:01.038Z,27.20
2022-08-17T17:10:42.174Z,27.20
2022-08-17T17:13:33.666Z,27.10
2022-08-17T17:16:29.522Z,27.00
2022-08-17T17:19:18.011Z,26.90
2022-08-17T17:22:24.876Z,26.80
2022-08-17T17:25:17.941Z,26.60
2022-08-17T17:28:01.970Z,26.60
2022-08-17T17:30:48.942Z,26.50
2022-08-17T17:33:40.565Z,26.50
2022-08-17T17:36:29.370Z,26.30
2022-08-17T17:39:04.218Z,26.20
2022-08-17T17:41:48.957Z,26.00
2022-08-17T17:44:21.722Z,25.90
2022-08-17T17:46:54.542Z,25.80
2022-08-17T17:49:21.639Z,25.80
2022-08-17T17:52:19.463Z,25.70
2022-08-17T17:54:54.203Z,25.60
2022-08-17T17:57:59.617Z,25.50
2022-08-17T18:00:33.028Z,25.40
2022-08-17T18:02:59.973Z,25.40
2022-08-17T18:05:38.845Z,25.30
2022-08-17T18:08:33.995Z,25.30
2022-08-17T18:11:24.581Z,25.20
2022-08-17T18:14:14.809Z,25.20
2022-08-17T18:16:42.865Z,25.10
2022-08-17T18:19:15.646Z,25.10
2022-08-17T18:21:46.439Z,25.00
2022-08-17T18:24:14.396Z,24.90
2022-08-17T18:27:00.783Z,24.80
2022-08-17T18:29:27.736Z,24.70
2022-08-17T18:32:13.669Z,24.70
2022-08-17T18:34:47.626Z,24.60
2022-08-17T18:37:34.801Z,24.50
2022-08-17T18:40:17.238Z,24.40
2022-08-17T18:43:02.903Z,24.30
2022-08-17T18:45:47.158Z,24.30
2022-08-17T18:48:28.469Z,24.20
2022-08-17T18:51:02.217Z,24.10
2022-08-17T18:53:39.182Z,24.00
2022-08-17T18:56:28.022Z,23.90
2022-08-17T18:59:27.009Z,23.90
2022-08-17T19:02:27.303Z,23.70
2022-08-17T19:05:34.002Z,23.60
2022-08-17T19:08:26.629Z,23.50
2022-08-17T19:10:58.433Z,23.40
2022-08-17T19:13:49.843Z,23.40
2022-08-17T19:16:26.865Z,23.30
2022-08-17T19:18:59.759Z,23.20
2022-08-17T19:21:53.229Z,23.10
2022-08-17T19:24:23.387Z,23.00
2022-08-17T19:27:10.786Z,22.90
2022-08-17T19:29:46.561Z,22.80
2022-08-17T19:32:18.003Z,22.80
2022-08-17T19:34:45.272Z,22.70
2022-08-17T19:37:38.764Z,22.70
2022-08-17T19:40:50.696Z,22.50
2022-08-17T19:43:31.663Z,22.50
2022-08-17T19:46:16.303Z,22.40
2022-08-17T19:49:06.431Z,22.40
2022-08-17T19:52:04.083Z,22.30
2022-08-17T19:54:55.290Z,22.30
2022-08-17T19:57:34.186Z,22.20
2022-08-17T20:00:10.809Z,22.10
2022-08-17T20:03:05.616Z,22.00
2022-08-17T20:06:08.855Z,21.90
2022-08-17T20:08:36.815Z,21.90
2022-08-17T20:11:18.421Z,21.70
2022-08-17T20:14:07.182Z,21.60
2022-08-17T20:16:34.352Z,21.50
2022-08-17T20:19:04.836Z,21.40
2022-08-17T20:21:37.199Z,21.40
2022-08-17T20:24:32.452Z,21.30
2022-08-17T20:27:31.360Z,21.20
2022-08-17T20:30:04.269Z,21.10
2022-08-17T20:32:35.635Z,21.00
2022-08-17T20:35:17.861Z,21.00
2022-08-17T20:37:54.076Z,20.90
2022-08-17T20:40:28.739Z,20.80
2022-08-17T20:42:57.254Z,20.80
2022-08-17T20:45:26.170Z,20.80
2022-08-17T20:51:11.265Z,20.70
2022-08-17T20:53:47.669Z,20.60
2022-08-17T20:56:43.046Z,20.60
2022-08-17T20:59:31.593Z,20.50
2022-08-17T21:02:18.351Z,20.50
2022-08-17T21:05:04.030Z,20.50
2022-08-17T21:07:41.039Z,20.50
2022-08-17T21:10:19.509Z,20.40
2022-08-17T21:12:59.120Z,20.40
2022-08-17T21:15:54.054Z,20.30
2022-08-17T21:18:44.016Z,20.30
2022-08-17T21:21:15.393Z,20.20
2022-08-17T21:24:05.409Z,20.10
2022-08-17T21:26:55.573Z,20.00
2022-08-17T21:29:30.877Z,20.00
2022-08-17T21:32:02.898Z,19.90
2022-08-17T21:34:43.721Z,19.90
2022-08-17T21:37:23.365Z,19.80
2022-08-17T21:39:58.667Z,19.80
2022-08-17T21:42:29.757Z,19.70
2022-08-17T21:45:08.079Z,19.70
2022-08-17T21:47:35.391Z,19.60
2022-08-17T21:50:22.558Z,19.60
2022-08-17T21:52:53.902Z,19.60
2022-08-17T21:55:30.944Z,19.50
2022-08-17T21:58:13.340Z,19.40
2022-08-17T22:00:44.225Z,19.30
2022-08-17T22:03:25.836Z,19.30
2022-08-17T22:05:52.928Z,19.20
2022-08-17T22:08:23.614Z,19.20
2022-08-17T22:10:59.446Z,19.20
2022-08-17T22:13:29.333Z,19.20
2022-08-17T22:16:15.405Z,19.20
2022-08-17T22:18:58.292Z,19.10
2022-08-17T22:21:26.442Z,19.10
2022-08-17T22:24:14.906Z,19.10
2022-08-17T22:27:01.675Z,19.10
2022-08-17T22:29:48.558Z,19.10
2022-08-17T22:32:37.398Z,19.00
2022-08-17T22:35:43.034Z,19.00
2022-08-17T22:38:18.985Z,19.10
2022-08-17T22:40:54.419Z,19.00
2022-08-17T22:43:29.057Z,19.00
2022-08-17T22:45:59.359Z,19.00
2022-08-17T22:48:29.267Z,18.90
2022-08-17T22:51:12.384Z,18.80
2022-08-17T22:54:13.273Z,18.80
2022-08-17T22:57:08.953Z,18.80
2022-08-17T22:59:49.656Z,18.80
2022-08-17T23:02:35.543Z,18.80
2022-08-17T23:05:16.980Z,18.70
2022-08-17T23:07:45.925Z,18.70
2022-08-17T23:10:14.544Z,18.70
2022-08-17T23:12:41.663Z,18.60
2022-08-17T23:15:16.165Z,18.60
2022-08-17T23:17:44.534Z,18.60
2022-08-17T23:20:15.303Z,18.60
2022-08-17T23:22:51.694Z,18.60
2022-08-17T23:25:31.904Z,18.50
2022-08-17T23:28:03.714Z,18.60
2022-08-17T23:30:33.590Z,18.50
2022-08-17T23:33:08.477Z,18.50
2022-08-17T23:35:40.256Z,18.50
2022-08-17T23:38:11.859Z,18.50
2022-08-17T23:40:40.580Z,18.50
2022-08-17T23:43:24.175Z,18.40
2022-08-17T23:45:54.536Z,18.40
2022-08-17T23:48:35.115Z,18.40
2022-08-17T23:51:17.329Z,18.40
2022-08-17T23:53:50.012Z,18.30
2022-08-17T23:56:22.169Z,18.30
2022-08-17T23:58:49.161Z,18.30
